Time;durP1;ratioP1;P1;durP2;ratioP2;P2;SDS_P1;SDS_P2;PMS_P1;PMS_P2;Temp;Humidity;BMP_temperature;BMP_pressure;BME280_temperature;BME280_humidity;BME280_pressure;Samples;Min_cycle;Max_cycle;Signal;HPM_P1;HPM_P2
2022/11/10 00:01:32;;;;;;;4.97;2.53;;;12.80;99.90;;;;;;5010531;28;20222;-92
2022/11/10 00:03:57;;;;;;;5.00;2.83;;;15.50;99.90;;;;;;5026253;28;20474;-91
2022/11/10 00:06:23;;;;;;;3.70;2.60;;;14.60;99.90;;;;;;5013052;28;20183;-91
2022/11/10 00:08:48;;;;;;;2.67;2.13;;;15.30;99.90;;;;;;5012738;28;20282;-92
2022/11/10 00:11:14;;;;;;;3.43;2.70;;;14.70;99.90;;;;;;5004476;28;20263;-90
2022/11/10 00:16:59;;;;;;;2.60;2.40;;;12.60;99.90;;;;;;5013734;28;20233;-92
2022/11/10 00:19:09;;;;;;;3.55;2.50;;;14.20;99.90;;;;;;5008187;28;20269;-92
2022/11/10 00:21:38;;;;;;;2.50;2.30;;;13.00;99.90;;;;;;5009518;28;20241;-92
2022/11/10 00:24:03;;;;;;;2.95;2.45;;;15.00;99.90;;;;;;5007182;28;20249;-92
2022/11/10 00:26:29;;;;;;;1.87;1.77;;;13.20;99.90;;;;;;5012938;28;20181;-92
2022/11/10 00:28:55;;;;;;;2.23;2.03;;;11.80;99.90;;;;;;5012184;28;20445;-92
2022/11/10 00:31:20;;;;;;;3.10;2.20;;;11.80;99.90;;;;;;5018876;28;20219;-92
2022/11/10 00:33:46;;;;;;;3.37;2.77;;;;;;;;;;5013410;28;20187;-92
2022/11/10 00:36:12;;;;;;;3.38;2.40;;;13.00;99.90;;;;;;5021813;28;20229;-92
2022/11/10 00:38:38;;;;;;;3.03;2.73;;;14.90;99.90;;;;;;5024663;28;20202;-92
2022/11/10 00:41:03;;;;;;;6.00;2.60;;;14.40;99.90;;;;;;5017117;28;20217;-92
2022/11/10 00:43:29;;;;;;;2.50;2.30;;;13.30;99.90;;;;;;5022250;28;20214;-92
2022/11/10 00:45:55;;;;;;;2.73;2.20;;;14.20;99.90;;;;;;5014072;28;20188;-92
2022/11/10 00:48:21;;;;;;;3.33;3.00;;;14.80;99.90;;;;;;5025755;28;20470;-92
2022/11/10 00:50:47;;;;;;;4.90;2.97;;;12.90;99.90;;;;;;5012267;28;20268;-92
2022/11/10 00:53:13;;;;;;;3.33;3.03;;;15.00;99.90;;;;;;5011884;28;20180;-92
2022/11/10 00:55:40;;;;;;;7.43;2.80;;;14.80;99.90;;;;;;5011105;28;20404;-93
2022/11/10 00:58:06;;;;;;;3.13;2.83;;;14.70;99.90;;;;;;5011590;28;20175;-92
2022/11/10 01:00:32;;;;;;;3.22;2.85;;;13.50;99.90;;;;;;5014586;28;20179;-92
2022/11/10 01:02:58;;;;;;;3.05;2.60;;;13.60;99.90;;;;;;5015348;28;20206;-93
2022/11/10 01:05:23;;;;;;;2.60;2.40;;;13.90;99.90;;;;;;5012143;28;20200;-92
2022/11/10 01:07:49;;;;;;;2.67;2.33;;;14.10;99.90;;;;;;5011275;28;20758;-93
2022/11/10 01:10:15;;;;;;;5.50;2.60;;;15.10;99.90;;;;;;5007149;28;20757;-93
2022/11/10 01:12:41;;;;;;;3.67;3.15;;;13.20;99.90;;;;;;5020077;28;20203;-92
2022/11/10 01:15:07;;;;;;;2.30;2.10;;;14.80;99.90;;;;;;5017937;28;20231;-92
2022/11/10 01:17:33;;;;;;;2.53;2.33;;;12.90;99.90;;;;;;5029896;28;20182;-92
2022/11/10 01:19:58;;;;;;;7.47;2.70;;;13.20;99.90;;;;;;5002527;28;20193;-93
2022/11/10 01:22:24;;;;;;;3.07;2.87;;;13.90;99.90;;;;;;5011336;28;20627;-92
2022/11/10 01:24:50;;;;;;;3.43;2.53;;;13.10;99.90;;;;;;5014814;28;20198;-92
2022/11/10 01:27:15;;;;;;;7.60;3.07;;;13.80;99.90;;;;;;5019001;28;20611;-93
2022/11/10 01:29:41;;;;;;;2.67;2.40;;;11.50;99.90;;;;;;5025332;28;20206;-92
2022/11/10 01:32:06;;;;;;;3.00;2.60;;;15.10;99.90;;;;;;5014444;28;20714;-92
2022/11/10 01:34:32;;;;;;;2.93;2.40;;;14.40;99.90;;;;;;5012429;28;20190;-92
2022/11/10 01:36:58;;;;;;;3.87;2.27;;;14.80;99.90;;;;;;5013223;28;20664;-93
2022/11/10 01:39:23;;;;;;;3.93;2.30;;;14.10;99.90;;;;;;5011918;28;20290;-93
2022/11/10 01:41:49;;;;;;;3.73;2.33;;;14.10;99.90;;;;;;5025734;28;20647;-93
2022/11/10 01:44:21;;;;;;;2.50;2.30;;;14.50;99.90;;;;;;5013615;28;20181;-93
2022/11/10 01:46:46;;;;;;;5.47;2.35;;;14.10;99.90;;;;;;5014277;28;20186;-93
2022/11/10 01:49:15;;;;;;;2.90;2.70;;;14.70;99.90;;;;;;5014779;28;20550;-93
2022/11/10 01:51:56;;;;;;;2.47;2.28;;;15.10;99.90;;;;;;5011266;28;20304;-93
2022/11/10 01:54:26;;;;;;;3.00;2.47;;;12.40;99.90;;;;;;5005851;28;20187;-93
2022/11/10 01:56:56;;;;;;;7.57;2.50;;;12.60;99.90;;;;;;5019568;28;20186;-92
2022/11/10 01:59:26;;;;;;;3.22;2.88;;;13.30;99.90;;;;;;5014907;28;20277;-93
2022/11/10 02:01:55;;;;;;;3.03;2.72;;;14.40;99.90;;;;;;5020204;28;20228;-93
2022/11/10 02:04:21;;;;;;;3.35;2.45;;;12.10;99.90;;;;;;5026519;28;20180;-92
2022/11/10 02:06:48;;;;;;;2.90;2.33;;;14.10;99.90;;;;;;5018700;28;20367;-92
2022/11/10 02:09:15;;;;;;;4.40;2.35;;;13.00;99.90;;;;;;5034824;28;20430;-93
2022/11/10 02:11:41;;;;;;;5.13;2.58;;;13.70;99.90;;;;;;5015121;28;20213;-93
2022/11/10 02:14:07;;;;;;;5.03;3.03;;;14.00;99.90;;;;;;5014337;28;20185;-93
2022/11/10 02:16:34;;;;;;;4.30;2.60;;;14.60;99.90;;;;;;5007193;28;20277;-93
2022/11/10 02:19:17;;;;;;;5.22;2.40;;;12.10;99.90;;;;;;5020520;28;20200;-93
2022/11/10 02:21:43;;;;;;;8.80;2.90;;;11.90;99.90;;;;;;5025192;28;20220;-93
2022/11/10 02:24:09;;;;;;;4.67;2.90;;;12.50;99.90;;;;;;5028105;28;20186;-92
2022/11/10 02:26:38;;;;;;;3.97;3.30;;;12.60;99.90;;;;;;5014343;28;20915;-92
2022/11/10 02:29:04;;;;;;;4.78;3.00;;;10.80;99.90;;;;;;5014675;28;20180;-92
2022/11/10 02:31:29;;;;;;;5.60;3.27;;;13.20;99.90;;;;;;5015751;28;20239;-91
2022/11/10 02:33:55;;;;;;;4.77;2.67;;;13.60;99.90;;;;;;5020223;28;20679;-92
2022/11/10 02:36:20;;;;;;;3.40;2.97;;;12.70;99.90;;;;;;5015975;28;20231;-92
2022/11/10 02:38:46;;;;;;;4.37;2.87;;;13.60;99.90;;;;;;5022649;28;20268;-92
2022/11/10 02:41:12;;;;;;;4.50;2.70;;;11.40;99.90;;;;;;5012233;28;20678;-92
2022/11/10 02:43:38;;;;;;;4.37;3.30;;;12.70;99.90;;;;;;5015271;28;20183;-92
2022/11/10 02:46:03;;;;;;;3.58;3.20;;;13.30;99.90;;;;;;5012620;28;20212;-91
2022/11/10 02:48:29;;;;;;;8.37;3.03;;;11.80;99.90;;;;;;5019813;28;20274;-92
2022/11/10 02:50:55;;;;;;;8.97;2.80;;;11.50;99.90;;;;;;5021335;28;20457;-92
2022/11/10 02:53:20;;;;;;;4.80;3.03;;;13.20;99.90;;;;;;5019751;28;20211;-92
2022/11/10 02:55:46;;;;;;;4.97;2.80;;;12.90;99.90;;;;;;5015317;28;20183;-91
2022/11/10 02:58:11;;;;;;;5.37;2.90;;;11.10;99.90;;;;;;5019863;28;20671;-91
2022/11/10 03:00:37;;;;;;;4.50;3.10;;;;;;;;;;5012622;28;20299;-91
2022/11/10 03:03:04;;;;;;;5.70;3.80;;;11.20;99.90;;;;;;5030757;28;20184;-91
2022/11/10 03:05:30;;;;;;;3.80;3.40;;;12.10;99.90;;;;;;5018287;28;20455;-91
2022/11/10 03:08:00;;;;;;;3.67;2.97;;;13.00;99.90;;;;;;5013734;28;20188;-91
2022/11/10 03:10:28;;;;;;;6.75;3.78;;;10.90;99.90;;;;;;5007515;28;20222;-91
2022/11/10 03:12:58;;;;;;;4.38;2.95;;;11.90;99.90;;;;;;5012851;28;20199;-91
2022/11/10 03:15:24;;;;;;;3.60;3.05;;;11.10;99.90;;;;;;5012778;28;20203;-91
2022/11/10 03:17:50;;;;;;;3.72;2.97;;;12.00;99.90;;;;;;5009246;28;20183;-92
2022/11/10 03:20:17;;;;;;;5.60;3.50;;;12.00;99.90;;;;;;5016604;28;20191;-91
2022/11/10 03:22:43;;;;;;;3.33;3.03;;;11.10;99.90;;;;;;5011613;28;20200;-91
2022/11/10 03:25:09;;;;;;;7.43;3.03;;;12.50;99.90;;;;;;5009579;28;20200;-92
2022/11/10 03:27:35;;;;;;;5.25;3.15;;;11.50;99.90;;;;;;5015643;28;20184;-91
2022/11/10 03:30:01;;;;;;;3.67;2.90;;;11.20;99.90;;;;;;5021857;28;20207;-91
2022/11/10 03:32:27;;;;;;;6.00;2.90;;;11.60;99.90;;;;;;5024092;28;20204;-91
2022/11/10 03:34:53;;;;;;;2.90;2.60;;;11.90;99.90;;;;;;5016654;28;20820;-92
2022/11/10 03:37:18;;;;;;;3.05;2.45;;;13.90;99.90;;;;;;5010967;28;20218;-91
2022/11/10 03:39:44;;;;;;;4.70;2.97;;;12.50;99.90;;;;;;5014605;28;20190;-93
2022/11/10 03:42:09;;;;;;;2.93;2.37;;;11.40;99.90;;;;;;5012462;28;20223;-93
2022/11/10 03:44:35;;;;;;;4.23;2.90;;;10.50;99.90;;;;;;5020032;28;20290;-91
2022/11/10 03:47:02;;;;;;;4.03;2.80;;;12.60;99.90;;;;;;5017925;28;20663;-91
2022/11/10 03:49:29;;;;;;;3.47;2.72;;;11.80;99.90;;;;;;5018408;28;20273;-91
2022/11/10 03:51:55;;;;;;;6.90;3.10;;;13.20;99.90;;;;;;5011035;28;20310;-91
2022/11/10 03:54:21;;;;;;;3.10;2.80;;;11.80;99.90;;;;;;5015062;28;20172;-91
2022/11/10 03:56:47;;;;;;;3.10;2.90;;;;;;;;;;5017046;28;20172;-94
2022/11/10 03:59:13;;;;;;;4.50;3.20;;;10.60;99.90;;;;;;5024157;28;20225;-93
2022/11/10 04:01:38;;;;;;;4.10;3.70;;;11.90;99.90;;;;;;5009560;28;20581;-93
2022/11/10 04:04:04;;;;;;;3.30;3.00;;;12.40;99.90;;;;;;5013639;28;20191;-93
2022/11/10 04:09:14;;;;;;;4.30;3.00;;;10.70;99.90;;;;;;5007422;28;20191;-91
2022/11/10 04:17:08;;;;;;;4.00;2.90;;;10.90;99.90;;;;;;5025030;28;20233;-91
2022/11/10 04:19:34;;;;;;;3.10;2.90;;;9.70;99.90;;;;;;5011072;28;20646;-91
2022/11/10 04:21:59;;;;;;;4.30;3.90;;;8.90;99.90;;;;;;5008713;28;20223;-93
2022/11/10 04:24:25;;;;;;;8.63;3.10;;;11.80;99.90;;;;;;5013695;28;20191;-92
2022/11/10 04:26:51;;;;;;;7.13;3.67;;;12.00;99.90;;;;;;5011892;28;20221;-93
2022/11/10 04:29:18;;;;;;;5.13;3.50;;;11.70;99.90;;;;;;5012459;28;20180;-90
2022/11/10 04:31:44;;;;;;;2.78;2.55;;;12.20;99.90;;;;;;5002388;28;20255;-90
2022/11/10 04:34:13;;;;;;;5.17;3.30;;;10.60;99.90;;;;;;5014786;28;20171;-91
2022/11/10 04:36:41;;;;;;;3.35;2.85;;;12.00;99.90;;;;;;5014287;28;20176;-93
2022/11/10 04:39:08;;;;;;;6.90;4.75;;;;;;;;;;5012154;28;20183;-90
2022/11/10 04:41:35;;;;;;;3.35;2.70;;;10.80;99.90;;;;;;5011169;28;20222;-93
2022/11/10 04:44:01;;;;;;;3.58;3.15;;;12.10;99.90;;;;;;5014194;28;20209;-93
2022/11/10 04:46:30;;;;;;;3.95;2.92;;;11.30;99.90;;;;;;5015501;28;20180;-91
2022/11/10 04:48:56;;;;;;;4.22;3.00;;;10.60;99.90;;;;;;5014820;28;20191;-92
2022/11/10 04:51:24;;;;;;;5.10;2.92;;;12.60;99.90;;;;;;5014794;28;20211;-92
2022/11/10 04:53:50;;;;;;;6.13;2.80;;;12.20;99.90;;;;;;5023552;28;20186;-93
2022/11/10 04:56:18;;;;;;;4.13;2.73;;;11.70;99.90;;;;;;5017554;28;20698;-92
2022/11/10 04:58:44;;;;;;;4.28;2.22;;;11.40;99.90;;;;;;5028975;28;20246;-91
2022/11/10 05:01:18;;;;;;;4.68;2.65;;;11.20;99.90;;;;;;5013627;28;20215;-92
2022/11/10 05:03:45;;;;;;;2.88;2.45;;;10.10;99.90;;;;;;5015810;28;20271;-92
2022/11/10 05:06:10;;;;;;;4.85;2.85;;;12.40;99.90;;;;;;5026558;28;20234;-92
2022/11/10 05:08:37;;;;;;;4.03;3.10;;;10.60;99.90;;;;;;5018835;28;20178;-92
2022/11/10 05:11:04;;;;;;;4.38;3.13;;;9.80;99.90;;;;;;5026312;28;20453;-92
2022/11/10 05:13:30;;;;;;;4.45;2.50;;;8.20;99.90;;;;;;5008044;28;20811;-92
2022/11/10 05:15:56;;;;;;;3.50;2.83;;;10.20;99.90;;;;;;5013807;28;20278;-93
2022/11/10 05:18:21;;;;;;;5.00;4.47;;;11.30;99.90;;;;;;5014109;28;20951;-92
2022/11/10 05:20:47;;;;;;;4.33;3.27;;;;;;;;;;5007910;28;20191;-92
2022/11/10 05:25:57;;;;;;;6.50;3.13;;;11.70;99.90;;;;;;5007527;28;20194;-92
2022/11/10 05:28:23;;;;;;;4.53;3.20;;;;;;;;;;5027144;28;20555;-92
2022/11/10 05:30:49;;;;;;;3.00;2.80;;;9.80;99.90;;;;;;5017200;28;20206;-93
2022/11/10 05:33:14;;;;;;;3.60;3.10;;;11.20;99.90;;;;;;5014923;28;20268;-92
2022/11/10 05:35:40;;;;;;;5.03;3.13;;;10.60;99.90;;;;;;5016208;28;20180;-92
2022/11/10 05:38:06;;;;;;;3.57;2.80;;;11.30;99.90;;;;;;5018754;28;20261;-92
2022/11/10 05:40:32;;;;;;;4.60;2.97;;;11.10;99.90;;;;;;5013992;28;20454;-92
2022/11/10 05:42:58;;;;;;;5.75;3.10;;;11.20;99.90;;;;;;5011989;28;20449;-92
2022/11/10 05:45:26;;;;;;;3.80;3.07;;;12.00;99.90;;;;;;5011347;28;20217;-92
2022/11/10 05:47:52;;;;;;;3.80;3.50;;;11.60;99.90;;;;;;5011315;28;20180;-92
2022/11/10 05:50:20;;;;;;;4.82;3.47;;;11.30;99.90;;;;;;5021497;28;20202;-94
2022/11/10 05:52:48;;;;;;;4.40;3.70;;;10.70;99.90;;;;;;5017613;28;20227;-94
2022/11/10 05:55:15;;;;;;;3.45;3.15;;;11.70;99.90;;;;;;5033083;28;20597;-93
2022/11/10 05:57:45;;;;;;;4.28;3.47;;;9.70;99.90;;;;;;5012726;28;20175;-91
2022/11/10 06:00:12;;;;;;;4.70;3.55;;;10.30;99.90;;;;;;5011675;28;20270;-91
2022/11/10 06:02:38;;;;;;;3.25;2.92;;;9.80;99.90;;;;;;5014629;28;20202;-91
2022/11/10 06:05:04;;;;;;;3.77;3.47;;;9.70;99.90;;;;;;5008222;28;20211;-91
2022/11/10 06:07:30;;;;;;;4.10;3.55;;;9.50;99.90;;;;;;5016279;28;20284;-90
2022/11/10 06:09:55;;;;;;;3.83;3.20;;;11.20;99.90;;;;;;5014686;28;20231;-91
2022/11/10 06:12:23;;;;;;;6.93;3.63;;;8.20;99.90;;;;;;5013181;28;20210;-91
2022/11/10 06:14:50;;;;;;;3.35;3.05;;;11.00;99.90;;;;;;5030185;28;20214;-91
2022/11/10 06:17:15;;;;;;;3.92;3.50;;;10.90;99.90;;;;;;5011479;28;20176;-91
2022/11/10 06:19:41;;;;;;;4.37;3.97;;;;;;;;;;5009918;28;20190;-92
2022/11/10 06:22:07;;;;;;;4.83;3.70;;;9.20;99.90;;;;;;5016606;28;20632;-90
2022/11/10 06:24:36;;;;;;;4.33;3.07;;;10.30;99.90;;;;;;5021392;28;20525;-91
2022/11/10 06:27:02;;;;;;;7.10;3.92;;;;;;;;;;5013307;28;20190;-89
2022/11/10 06:29:28;;;;;;;6.97;3.80;;;;;;;;;;5012900;28;20191;-89
2022/11/10 06:31:53;;;;;;;4.55;4.15;;;9.40;99.90;;;;;;5017210;28;20949;-89
2022/11/10 06:34:19;;;;;;;8.20;5.10;;;;;;;;;;5009923;28;20181;-89
2022/11/10 06:36:45;;;;;;;4.50;4.00;;;9.20;99.90;;;;;;5019227;28;20741;-88
2022/11/10 06:39:10;;;;;;;4.60;3.63;;;10.50;99.90;;;;;;5015117;28;20191;-90
2022/11/10 06:41:36;;;;;;;4.17;3.77;;;8.80;99.90;;;;;;5015244;28;20219;-90
2022/11/10 06:44:02;;;;;;;5.77;4.37;;;10.20;99.90;;;;;;5021440;28;20194;-91
2022/11/10 06:46:27;;;;;;;7.30;3.20;;;9.70;99.90;;;;;;5008754;28;20229;-91
2022/11/10 06:48:53;;;;;;;6.27;3.53;;;10.50;99.90;;;;;;5019735;28;20228;-91
2022/11/10 06:51:18;;;;;;;3.60;3.30;;;10.50;99.90;;;;;;5013088;28;20210;-90
2022/11/10 06:53:44;;;;;;;5.13;3.20;;;10.80;99.90;;;;;;5025220;28;20208;-92
2022/11/10 06:56:10;;;;;;;6.50;5.20;;;9.70;99.90;;;;;;5013086;28;20186;-92
2022/11/10 06:58:35;;;;;;;8.20;4.43;;;9.90;99.90;;;;;;5013438;28;20183;-86
2022/11/10 07:01:01;;;;;;;5.63;4.47;;;9.50;99.90;;;;;;5039276;23;20203;-65
2022/11/10 07:03:27;;;;;;;6.33;3.23;;;9.50;99.90;;;;;;4986919;28;20315;-64
2022/11/10 07:05:52;;;;;;;5.27;3.87;;;9.70;99.90;;;;;;4988962;28;20381;-65
2022/11/10 07:08:18;;;;;;;4.13;3.50;;;9.70;99.90;;;;;;4988231;28;20185;-64
2022/11/10 07:10:51;;;;;;;6.33;4.83;;;9.90;99.90;;;;;;4986111;28;20211;-64
2022/11/10 07:13:17;;;;;;;7.28;4.50;;;9.70;99.90;;;;;;4990557;28;20525;-64
2022/11/10 07:15:43;;;;;;;4.38;3.83;;;10.10;99.90;;;;;;4991431;28;20192;-65
2022/11/10 07:18:08;;;;;;;7.57;3.63;;;10.10;99.90;;;;;;4989512;28;20186;-67
2022/11/10 07:20:34;;;;;;;4.60;3.60;;;10.30;99.90;;;;;;4988401;28;20291;-67
2022/11/10 07:23:05;;;;;;;7.33;3.90;;;10.20;99.90;;;;;;5004094;28;20207;-68
2022/11/10 07:25:32;;;;;;;4.32;3.72;;;10.00;99.90;;;;;;4992294;28;20977;-67
2022/11/10 07:28:00;;;;;;;4.88;4.47;;;10.00;99.90;;;;;;4992535;28;20191;-67
2022/11/10 07:30:28;;;;;;;4.93;3.55;;;10.20;99.90;;;;;;4990454;28;20203;-67
2022/11/10 07:33:10;;;;;;;5.75;4.47;;;10.10;99.90;;;;;;4989820;28;20204;-66
2022/11/10 07:35:36;;;;;;;5.75;4.15;;;10.00;99.90;;;;;;4983025;28;20704;-63
2022/11/10 07:38:05;;;;;;;3.95;3.20;;;10.20;99.90;;;;;;4992496;28;20184;-63
2022/11/10 07:40:31;;;;;;;4.65;3.47;;;10.40;99.90;;;;;;4989775;28;20188;-63
2022/11/10 07:42:57;;;;;;;4.05;3.60;;;10.50;99.90;;;;;;4985128;28;20209;-64
2022/11/10 07:45:22;;;;;;;4.07;3.50;;;10.40;99.90;;;;;;4987030;28;20189;-65
2022/11/10 07:47:49;;;;;;;4.07;3.43;;;10.40;99.90;;;;;;4987815;28;20443;-65
2022/11/10 07:50:16;;;;;;;9.60;5.50;;;10.40;99.90;;;;;;4988410;28;20979;-66
2022/11/10 07:52:41;;;;;;;8.60;5.70;;;10.40;99.90;;;;;;4987625;28;20250;-64
2022/11/10 07:55:07;;;;;;;4.80;3.70;;;10.40;99.90;;;;;;4992063;28;20204;-62
2022/11/10 07:57:33;;;;;;;4.05;3.65;;;10.50;99.90;;;;;;4988898;28;20272;-64
2022/11/10 07:59:59;;;;;;;4.40;3.73;;;10.70;99.90;;;;;;4988212;28;20276;-64
2022/11/10 08:02:25;;;;;;;4.80;4.30;;;10.40;99.90;;;;;;4989754;28;20703;-65
2022/11/10 08:04:51;;;;;;;4.85;3.30;;;10.40;99.90;;;;;;4988325;28;20204;-65
2022/11/10 08:07:17;;;;;;;7.80;3.70;;;10.70;99.90;;;;;;4992884;28;20668;-65
2022/11/10 08:09:43;;;;;;;7.30;4.38;;;10.90;99.90;;;;;;4991185;28;20991;-64
2022/11/10 08:12:09;;;;;;;6.63;4.40;;;10.70;99.90;;;;;;4990693;28;20235;-65
2022/11/10 08:14:34;;;;;;;5.13;4.10;;;10.60;99.90;;;;;;4991495;28;20986;-65
2022/11/10 08:17:00;;;;;;;5.70;4.80;;;10.60;99.90;;;;;;4988808;28;20822;-67
2022/11/10 08:19:26;;;;;;;6.40;4.80;;;10.90;99.90;;;;;;4994674;28;20261;-66
2022/11/10 08:21:52;;;;;;;4.73;4.33;;;11.00;99.90;;;;;;4993197;28;20505;-66
2022/11/10 08:24:17;;;;;;;7.33;4.10;;;11.20;99.90;;;;;;4990864;28;20583;-67
2022/11/10 08:26:43;;;;;;;4.90;4.50;;;11.00;99.90;;;;;;4995066;28;20195;-66
2022/11/10 08:29:09;;;;;;;4.70;4.30;;;10.90;99.90;;;;;;4995725;28;20223;-63
2022/11/10 08:31:37;;;;;;;5.53;4.53;;;11.10;99.90;;;;;;4989070;28;20658;-64
2022/11/10 08:34:03;;;;;;;8.27;4.30;;;11.20;99.90;;;;;;4991756;28;20512;-64
2022/11/10 08:36:28;;;;;;;4.28;3.88;;;11.30;99.90;;;;;;4990285;28;20538;-64
2022/11/10 08:38:54;;;;;;;4.97;3.63;;;11.40;99.90;;;;;;4991938;28;20188;-63
2022/11/10 08:41:20;;;;;;;5.13;4.67;;;11.50;99.90;;;;;;4988071;28;20188;-65
2022/11/10 08:43:46;;;;;;;6.73;4.70;;;11.60;99.90;;;;;;4993088;28;20196;-64
2022/11/10 08:46:12;;;;;;;4.63;3.80;;;11.60;99.90;;;;;;4993649;28;20181;-64
2022/11/10 08:48:38;;;;;;;4.43;3.70;;;11.60;99.90;;;;;;4993989;28;20202;-64
2022/11/10 08:51:03;;;;;;;5.30;4.00;;;11.80;99.90;;;;;;4993384;28;20341;-64
2022/11/10 08:53:29;;;;;;;5.10;3.77;;;12.10;99.90;;;;;;4981506;28;20297;-65
2022/11/10 08:55:58;;;;;;;4.20;3.80;;;12.20;99.90;;;;;;4991009;28;20229;-64
2022/11/10 08:58:24;;;;;;;5.32;4.10;;;12.10;99.90;;;;;;4991348;28;20210;-64
2022/11/10 09:00:51;;;;;;;9.73;4.27;;;12.20;99.90;;;;;;4992894;28;20244;-65
2022/11/10 09:03:21;;;;;;;4.82;4.30;;;12.50;99.90;;;;;;4992077;28;20570;-64
2022/11/10 09:05:48;;;;;;;5.85;3.92;;;12.60;99.90;;;;;;4988918;28;20645;-64
2022/11/10 09:08:15;;;;;;;5.90;5.28;;;13.00;99.90;;;;;;4990920;28;20249;-64
2022/11/10 09:10:46;;;;;;;5.70;3.10;;;13.10;99.90;;;;;;4990118;28;20287;-65
2022/11/10 09:13:13;;;;;;;7.75;2.92;;;13.90;99.90;;;;;;5007227;28;20251;-65
2022/11/10 09:15:40;;;;;;;4.63;2.70;;;14.00;99.90;;;;;;4981212;28;20199;-65
2022/11/10 09:18:06;;;;;;;4.50;3.75;;;14.10;99.90;;;;;;4987080;28;20191;-64
2022/11/10 09:20:34;;;;;;;5.72;4.10;;;14.70;99.90;;;;;;4995503;28;20499;-65
2022/11/10 09:23:09;;;;;;;4.55;3.10;;;15.40;99.90;;;;;;4998034;28;20218;-63
2022/11/10 09:25:35;;;;;;;3.88;2.28;;;16.50;99.90;;;;;;4991892;28;20203;-64
2022/11/10 09:28:01;;;;;;;6.90;3.92;;;17.40;99.90;;;;;;4993243;28;20203;-64
2022/11/10 09:30:27;;;;;;;5.20;3.23;;;17.90;99.30;;;;;;4991320;28;20242;-67
2022/11/10 09:32:57;;;;;;;2.72;1.60;;;17.50;99.80;;;;;;4989300;28;20210;-66
2022/11/10 09:35:23;;;;;;;3.50;1.23;;;16.90;99.10;;;;;;4990370;28;20180;-66
2022/11/10 09:37:49;;;;;;;2.67;1.83;;;16.80;98.20;;;;;;4990171;28;20181;-66
2022/11/10 09:40:56;;;;;;;1.80;1.40;;;16.40;98.50;;;;;;4991671;28;20183;-67
2022/11/10 09:43:28;;;;;;;2.53;1.60;;;16.30;99.30;;;;;;5004492;28;20211;-66
2022/11/10 09:45:57;;;;;;;3.30;1.58;;;16.40;98.40;;;;;;4992008;28;20207;-68
2022/11/10 09:48:29;;;;;;;2.85;1.55;;;16.10;99.90;;;;;;4994646;28;20230;-69
2022/11/10 09:51:22;;;;;;;2.90;1.50;;;15.90;99.20;;;;;;4986475;28;20230;-66
2022/11/10 09:54:17;;;;;;;3.60;1.70;;;15.70;98.70;;;;;;4990483;28;20457;-66
2022/11/10 09:56:42;;;;;;;2.05;1.20;;;15.10;99.80;;;;;;4987789;28;20424;-68
2022/11/10 09:59:29;;;;;;;4.30;1.40;;;15.40;98.70;;;;;;4989122;28;20238;-68
2022/11/10 10:02:16;;;;;;;3.65;1.98;;;15.80;97.90;;;;;;4985645;28;20258;-66
2022/11/10 10:05:03;;;;;;;3.15;2.53;;;15.50;98.10;;;;;;5005219;28;20191;-67
2022/11/10 10:07:29;;;;;;;2.85;1.65;;;15.80;98.00;;;;;;4987981;28;20191;-67
2022/11/10 10:10:26;;;;;;;7.40;1.57;;;16.00;97.40;;;;;;4991492;28;20676;-67
2022/11/10 10:13:03;;;;;;;5.65;1.45;;;17.00;95.80;;;;;;4998133;28;20291;-67
2022/11/10 10:15:34;;;;;;;3.95;1.70;;;17.40;95.00;;;;;;4996094;28;20225;-67
2022/11/10 10:18:33;;;;;;;3.70;1.48;;;17.00;96.00;;;;;;4999629;28;20657;-68
2022/11/10 10:21:17;;;;;;;4.20;1.50;;;17.20;95.30;;;;;;4989286;28;20186;-68
2022/11/10 10:23:53;;;;;;;1.88;1.30;;;17.10;94.50;;;;;;4987003;28;20828;-68
2022/11/10 10:26:27;;;;;;;1.88;1.23;;;17.10;94.70;;;;;;4990464;28;20218;-68
2022/11/10 10:28:54;;;;;;;3.60;2.22;;;17.70;94.20;;;;;;4987249;28;20524;-68
2022/11/10 10:31:33;;;;;;;3.85;1.85;;;18.50;93.70;;;;;;4988289;28;20787;-68
2022/11/10 10:33:59;;;;;;;3.47;1.80;;;19.30;92.20;;;;;;4990650;28;20179;-67
2022/11/10 10:36:28;;;;;;;2.80;1.30;;;20.90;88.50;;;;;;4993565;28;20554;-67
2022/11/10 10:39:03;;;;;;;3.50;1.43;;;21.60;83.70;;;;;;4981214;28;20465;-67
2022/11/10 10:41:32;;;;;;;1.97;1.17;;;21.50;83.20;;;;;;4986822;28;20454;-67
2022/11/10 10:44:00;;;;;;;2.33;1.33;;;22.10;78.90;;;;;;4990708;28;20568;-66
2022/11/10 10:46:28;;;;;;;2.13;1.23;;;22.70;76.10;;;;;;4990537;28;20494;-68
2022/11/10 10:49:12;;;;;;;2.90;1.63;;;22.20;75.10;;;;;;4991141;28;21066;-68
2022/11/10 10:51:38;;;;;;;2.43;1.20;;;22.90;73.40;;;;;;4990104;28;20470;-68
2022/11/10 10:54:04;;;;;;;2.50;1.27;;;23.10;72.60;;;;;;4999688;28;20834;-68
2022/11/10 10:56:32;;;;;;;4.27;1.50;;;22.80;73.00;;;;;;4991235;28;20227;-68
2022/11/10 10:59:02;;;;;;;2.07;1.20;;;22.70;73.20;;;;;;4987307;28;20238;-68
2022/11/10 11:01:35;;;;;;;2.40;1.43;;;22.60;72.00;;;;;;4989624;28;20457;-68
2022/11/10 11:04:24;;;;;;;2.70;1.30;;;22.60;72.80;;;;;;4989851;28;20447;-66
2022/11/10 11:07:01;;;;;;;5.95;1.60;;;22.00;72.40;;;;;;4990369;28;20968;-67
2022/11/10 11:09:40;;;;;;;4.47;1.98;;;21.10;74.00;;;;;;4985546;28;20218;-68
2022/11/10 11:12:27;;;;;;;3.40;1.50;;;20.40;77.10;;;;;;4984179;28;20211;-67
2022/11/10 11:15:25;;;;;;;5.28;1.80;;;19.80;78.80;;;;;;4987629;28;20183;-68
2022/11/10 11:17:55;;;;;;;4.82;1.50;;;19.60;79.80;;;;;;5000871;28;20184;-68
2022/11/10 11:20:33;;;;;;;2.97;1.80;;;20.10;76.00;;;;;;4984869;28;20629;-68
2022/11/10 11:23:28;;;;;;;2.10;1.40;;;20.40;76.30;;;;;;4989000;28;20204;-67
2022/11/10 11:26:00;;;;;;;1.75;1.30;;;20.40;77.90;;;;;;4995898;28;20611;-67
2022/11/10 11:28:30;;;;;;;2.60;1.10;;;19.40;80.40;;;;;;4990635;28;20204;-67
2022/11/10 11:31:05;;;;;;;1.52;1.17;;;19.20;79.20;;;;;;4987125;28;20203;-67
2022/11/10 11:33:39;;;;;;;1.98;1.25;;;19.00;80.20;;;;;;4985385;28;20210;-68
2022/11/10 11:36:15;;;;;;;4.65;2.03;;;18.60;81.50;;;;;;4985432;28;20190;-68
2022/11/10 11:39:02;;;;;;;3.00;2.20;;;18.30;83.10;;;;;;4993001;28;20179;-65
2022/11/10 11:41:34;;;;;;;2.60;1.55;;;18.10;85.20;;;;;;5005738;28;20663;-66
2022/11/10 11:44:21;;;;;;;2.25;1.15;;;17.50;86.20;;;;;;4989044;28;20249;-64
2022/11/10 11:47:13;;;;;;;1.58;1.02;;;17.50;87.00;;;;;;5004046;28;20464;-64
2022/11/10 11:49:46;;;;;;;3.45;2.70;;;17.40;85.50;;;;;;4975951;28;20199;-64
2022/11/10 11:52:35;;;;;;;3.92;2.72;;;17.40;87.10;;;;;;4987713;28;20219;-65
2022/11/10 11:55:27;;;;;;;2.45;1.08;;;17.20;88.90;;;;;;5006041;28;20179;-65
2022/11/10 11:58:07;;;;;;;4.07;1.48;;;16.80;88.30;;;;;;4985724;28;20210;-64
2022/11/10 12:01:18;;;;;;;2.38;1.20;;;16.80;88.10;;;;;;4987430;28;20298;-65
2022/11/10 12:04:01;;;;;;;1.90;1.05;;;16.80;87.10;;;;;;4987428;28;20572;-64
2022/11/10 12:06:43;;;;;;;1.30;1.20;;;16.90;87.60;;;;;;4986299;28;20549;-68
2022/11/10 12:09:33;;;;;;;2.20;0.85;;;16.80;87.00;;;;;;4989028;28;20179;-66
2022/11/10 12:12:15;;;;;;;4.18;1.95;;;17.10;87.10;;;;;;4980668;28;20680;-67
2022/11/10 12:15:00;;;;;;;2.67;1.08;;;16.50;87.10;;;;;;4986541;28;20265;-66
2022/11/10 12:17:46;;;;;;;1.73;1.10;;;16.50;87.20;;;;;;4986908;28;20634;-64
2022/11/10 12:20:45;;;;;;;2.63;1.55;;;16.70;88.10;;;;;;4988657;28;20179;-65
2022/11/10 12:23:17;;;;;;;2.20;1.55;;;16.50;88.90;;;;;;4980534;28;20758;-65
2022/11/10 12:26:22;;;;;;;3.25;2.80;;;16.50;87.90;;;;;;4989275;28;20214;-65
2022/11/10 12:29:11;;;;;;;1.65;1.52;;;16.40;90.00;;;;;;4984715;28;20183;-64
2022/11/10 12:31:40;;;;;;;2.97;1.35;;;16.60;90.10;;;;;;4987470;28;20232;-65
2022/11/10 12:34:28;;;;;;;2.30;1.95;;;16.30;87.20;;;;;;4987200;28;20637;-67
2022/11/10 12:36:55;;;;;;;1.17;1.05;;;16.60;89.60;;;;;;4987142;28;20620;-67
2022/11/10 12:39:40;;;;;;;2.80;1.85;;;16.50;90.20;;;;;;4986253;28;20258;-67
2022/11/10 12:42:14;;;;;;;1.80;1.10;;;16.60;90.60;;;;;;4987958;28;20207;-67
2022/11/10 12:44:56;;;;;;;2.45;1.65;;;16.80;90.70;;;;;;4985477;28;20191;-67
2022/11/10 12:47:27;;;;;;;1.10;0.80;;;16.80;91.40;;;;;;4987033;28;20670;-67
2022/11/10 12:50:19;;;;;;;2.35;1.10;;;17.10;90.50;;;;;;4986386;28;20542;-64
2022/11/10 12:52:52;;;;;;;2.63;1.20;;;16.70;90.50;;;;;;4988585;28;20250;-64
2022/11/10 12:55:31;;;;;;;1.55;1.33;;;16.80;90.50;;;;;;4990386;28;20344;-64
2022/11/10 12:58:00;;;;;;;2.75;1.35;;;16.90;90.80;;;;;;4989139;28;20640;-64
2022/11/10 13:00:29;;;;;;;4.32;0.90;;;16.80;91.10;;;;;;4990617;28;20515;-65
2022/11/10 13:02:56;;;;;;;3.40;1.10;;;16.60;91.10;;;;;;4989886;28;20314;-65
2022/11/10 13:05:29;;;;;;;2.78;1.10;;;16.70;90.50;;;;;;4989165;28;20215;-66
2022/11/10 13:08:26;;;;;;;2.65;1.15;;;16.80;90.80;;;;;;4994210;28;20179;-66
2022/11/10 13:10:55;;;;;;;1.98;0.90;;;16.60;90.90;;;;;;4988792;28;20654;-65
2022/11/10 13:13:22;;;;;;;2.55;1.15;;;16.70;90.60;;;;;;4990938;28;20204;-65
2022/11/10 13:15:51;;;;;;;3.28;0.93;;;16.70;90.60;;;;;;4988518;28;20203;-65
2022/11/10 13:18:31;;;;;;;2.17;1.35;;;16.70;91.30;;;;;;4987628;28;20191;-65